sensor_id;sensor_type;location;lat;lon;timestamp;pressure;altitude;pressure_sealevel;temperature;humidity
57948;BME280;43754;56.992;24.292;2023-07-20T00:01:09;100436.97;;;14.14;94.65
57948;BME280;43754;56.992;24.292;2023-07-20T00:03:41;100441.34;;;14.08;95.37
57948;BME280;43754;56.992;24.292;2023-07-20T00:06:13;100446.50;;;14.03;95.71
57948;BME280;43754;56.992;24.292;2023-07-20T00:08:47;100436.78;;;14.02;96.20
57948;BME280;43754;56.992;24.292;2023-07-20T00:11:19;100442.41;;;13.94;97.31
57948;BME280;43754;56.992;24.292;2023-07-20T00:13:52;100443.22;;;13.95;96.64
57948;BME280;43754;56.992;24.292;2023-07-20T00:16:24;100441.34;;;13.95;96.88
57948;BME280;43754;56.992;24.292;2023-07-20T00:18:56;100436.78;;;13.96;96.92
57948;BME280;43754;56.992;24.292;2023-07-20T00:21:28;100435.56;;;13.92;97.06
57948;BME280;43754;56.992;24.292;2023-07-20T00:24:02;100436.81;;;13.89;97.34
57948;BME280;43754;56.992;24.292;2023-07-20T00:26:34;100434.50;;;13.86;97.73
57948;BME280;43754;56.992;24.292;2023-07-20T00:29:06;100438.88;;;13.80;98.42
57948;BME280;43754;56.992;24.292;2023-07-20T00:31:38;100438.47;;;13.77;99.31
57948;BME280;43754;56.992;24.292;2023-07-20T00:34:10;100439.50;;;13.76;99.30
57948;BME280;43754;56.992;24.292;2023-07-20T00:36:44;100441.16;;;13.70;100.00
57948;BME280;43754;56.992;24.292;2023-07-20T00:39:18;100443.44;;;13.67;100.00
57948;BME280;43754;56.992;24.292;2023-07-20T00:41:50;100440.75;;;13.67;100.00
57948;BME280;43754;56.992;24.292;2023-07-20T00:44:22;100444.47;;;13.66;100.00
57948;BME280;43754;56.992;24.292;2023-07-20T00:46:54;100440.75;;;13.67;100.00
57948;BME280;43754;56.992;24.292;2023-07-20T00:49:27;100447.59;;;13.63;100.00
57948;BME280;43754;56.992;24.292;2023-07-20T00:52:00;100443.00;;;13.57;100.00
57948;BME280;43754;56.992;24.292;2023-07-20T00:54:34;100445.69;;;13.57;100.00
57948;BME280;43754;56.992;24.292;2023-07-20T00:57:07;100442.41;;;13.48;100.00
57948;BME280;43754;56.992;24.292;2023-07-20T00:59:39;100440.75;;;13.47;100.00
57948;BME280;43754;56.992;24.292;2023-07-20T01:02:11;100440.09;;;13.45;100.00
57948;BME280;43754;56.992;24.292;2023-07-20T01:04:44;100436.16;;;13.41;100.00
57948;BME280;43754;56.992;24.292;2023-07-20T01:07:23;100436.16;;;13.41;100.00
57948;BME280;43754;56.992;24.292;2023-07-20T01:10:01;100439.69;;;13.35;100.00
57948;BME280;43754;56.992;24.292;2023-07-20T01:12:40;100439.91;;;13.33;100.00
57948;BME280;43754;56.992;24.292;2023-07-20T01:15:13;100427.25;;;13.34;100.00
57948;BME280;43754;56.992;24.292;2023-07-20T01:17:45;100432.66;;;13.34;100.00
57948;BME280;43754;56.992;24.292;2023-07-20T01:20:20;100433.69;;;13.33;100.00
57948;BME280;43754;56.992;24.292;2023-07-20T01:23:22;100425.81;;;13.31;100.00
57948;BME280;43754;56.992;24.292;2023-07-20T01:26:09;100423.94;;;13.32;100.00
57948;BME280;43754;56.992;24.292;2023-07-20T01:29:08;100416.31;;;13.35;100.00
57948;BME280;43754;56.992;24.292;2023-07-20T01:31:45;100415.47;;;13.35;100.00
57948;BME280;43754;56.992;24.292;2023-07-20T01:34:19;100420.84;;;13.35;100.00
57948;BME280;43754;56.992;24.292;2023-07-20T01:36:54;100417.09;;;13.36;100.00
57948;BME280;43754;56.992;24.292;2023-07-20T01:39:27;100418.16;;;13.35;100.00
57948;BME280;43754;56.992;24.292;2023-07-20T01:42:01;100413.81;;;13.34;100.00
57948;BME280;43754;56.992;24.292;2023-07-20T01:44:33;100411.94;;;13.34;100.00
57948;BME280;43754;56.992;24.292;2023-07-20T01:47:06;100409.66;;;13.38;100.00
57948;BME280;43754;56.992;24.292;2023-07-20T01:49:38;100410.69;;;13.37;100.00
57948;BME280;43754;56.992;24.292;2023-07-20T01:52:11;100411.53;;;13.44;100.00
57948;BME280;43754;56.992;24.292;2023-07-20T01:54:43;100412.16;;;13.46;100.00
57948;BME280;43754;56.992;24.292;2023-07-20T01:57:15;100406.34;;;13.49;100.00
57948;BME280;43754;56.992;24.292;2023-07-20T01:59:47;100407.81;;;13.52;100.00
57948;BME280;43754;56.992;24.292;2023-07-20T02:02:22;100404.50;;;13.50;100.00
57948;BME280;43754;56.992;24.292;2023-07-20T02:04:54;100422.31;;;13.51;100.00
57948;BME280;43754;56.992;24.292;2023-07-20T02:07:27;100414.84;;;13.46;100.00
57948;BME280;43754;56.992;24.292;2023-07-20T02:13:27;100418.16;;;13.35;100.00
57948;BME280;43754;56.992;24.292;2023-07-20T02:15:59;100415.47;;;13.35;100.00
57948;BME280;43754;56.992;24.292;2023-07-20T02:18:33;100411.94;;;13.21;100.00
57948;BME280;43754;56.992;24.292;2023-07-20T02:21:05;100416.91;;;13.18;100.00
57948;BME280;43754;56.992;24.292;2023-07-20T02:23:37;100418.94;;;13.16;100.00
57948;BME280;43754;56.992;24.292;2023-07-20T02:26:10;100412.13;;;13.13;100.00
57948;BME280;43754;56.992;24.292;2023-07-20T02:28:42;100417.06;;;13.10;100.00
57948;BME280;43754;56.992;24.292;2023-07-20T02:31:14;100411.03;;;13.08;100.00
57948;BME280;43754;56.992;24.292;2023-07-20T02:33:47;100413.97;;;13.13;100.00
57948;BME280;43754;56.992;24.292;2023-07-20T02:36:19;100417.09;;;13.16;100.00
57948;BME280;43754;56.992;24.292;2023-07-20T02:38:52;100410.50;;;13.19;100.00
57948;BME280;43754;56.992;24.292;2023-07-20T02:41:24;100410.69;;;13.24;100.00
57948;BME280;43754;56.992;24.292;2023-07-20T02:43:56;100411.50;;;13.24;100.00
57948;BME280;43754;56.992;24.292;2023-07-20T02:46:29;100415.06;;;13.31;100.00
57948;BME280;43754;56.992;24.292;2023-07-20T02:49:06;100410.09;;;13.35;100.00
57948;BME280;43754;56.992;24.292;2023-07-20T02:51:38;100409.03;;;13.29;100.00
57948;BME280;43754;56.992;24.292;2023-07-20T02:54:10;100410.47;;;13.32;100.00
57948;BME280;43754;56.992;24.292;2023-07-20T02:56:42;100410.72;;;13.44;100.00
57948;BME280;43754;56.992;24.292;2023-07-20T02:59:14;100409.69;;;13.51;100.00
57948;BME280;43754;56.992;24.292;2023-07-20T03:01:46;100410.72;;;13.50;100.00
57948;BME280;43754;56.992;24.292;2023-07-20T03:04:20;100407.81;;;13.52;100.00
57948;BME280;43754;56.992;24.292;2023-07-20T03:06:52;100404.28;;;13.51;100.00
57948;BME280;43754;56.992;24.292;2023-07-20T03:09:24;100415.06;;;13.58;100.00
57948;BME280;43754;56.992;24.292;2023-07-20T03:11:56;100413.22;;;13.65;100.00
57948;BME280;43754;56.992;24.292;2023-07-20T03:14:28;100412.16;;;13.66;100.00
57948;BME280;43754;56.992;24.292;2023-07-20T03:17:01;100416.50;;;13.67;100.00
57948;BME280;43754;56.992;24.292;2023-07-20T03:19:36;100408.84;;;13.70;100.00
57948;BME280;43754;56.992;24.292;2023-07-20T03:22:08;100413.63;;;13.81;100.00
57948;BME280;43754;56.992;24.292;2023-07-20T03:24:40;100418.97;;;13.95;100.00
57948;BME280;43754;56.992;24.292;2023-07-20T03:27:12;100408.81;;;13.97;100.00
57948;BME280;43754;56.992;24.292;2023-07-20T03:29:44;100404.03;;;14.05;100.00
57948;BME280;43754;56.992;24.292;2023-07-20T03:32:16;100405.91;;;13.98;100.00
57948;BME280;43754;56.992;24.292;2023-07-20T03:34:50;100402.78;;;14.01;100.00
57948;BME280;43754;56.992;24.292;2023-07-20T03:37:22;100405.50;;;14.01;100.00
57948;BME280;43754;56.992;24.292;2023-07-20T03:39:54;100406.91;;;14.04;100.00
57948;BME280;43754;56.992;24.292;2023-07-20T03:42:26;100406.50;;;14.07;100.00
57948;BME280;43754;56.992;24.292;2023-07-20T03:44:58;100407.31;;;14.07;100.00
57948;BME280;43754;56.992;24.292;2023-07-20T03:47:30;100412.25;;;14.30;100.00
57948;BME280;43754;56.992;24.292;2023-07-20T03:50:05;100416.63;;;15.20;100.00
57948;BME280;43754;56.992;24.292;2023-07-20T03:52:37;100413.94;;;16.19;98.02
57948;BME280;43754;56.992;24.292;2023-07-20T03:55:10;100406.50;;;16.51;94.05
57948;BME280;43754;56.992;24.292;2023-07-20T03:57:42;100416.88;;;16.54;94.24
57948;BME280;43754;56.992;24.292;2023-07-20T04:00:15;100409.16;;;16.39;94.62
57948;BME280;43754;56.992;24.292;2023-07-20T04:02:48;100421.44;;;16.17;96.26
57948;BME280;43754;56.992;24.292;2023-07-20T04:05:21;100425.59;;;15.77;98.13
57948;BME280;43754;56.992;24.292;2023-07-20T04:07:53;100419.84;;;15.67;99.24
57948;BME280;43754;56.992;24.292;2023-07-20T04:10:26;100420.63;;;15.74;99.43
57948;BME280;43754;56.992;24.292;2023-07-20T04:12:58;100414.13;;;15.81;99.27
57948;BME280;43754;56.992;24.292;2023-07-20T04:15:30;100415.78;;;16.00;98.30
57948;BME280;43754;56.992;24.292;2023-07-20T04:18:03;100417.09;;;16.71;95.07
57948;BME280;43754;56.992;24.292;2023-07-20T04:20:37;100415.97;;;17.08;90.86
57948;BME280;43754;56.992;24.292;2023-07-20T04:23:09;100412.22;;;17.09;90.30
57948;BME280;43754;56.992;24.292;2023-07-20T04:25:41;100412.56;;;17.13;90.32
57948;BME280;43754;56.992;24.292;2023-07-20T04:28:16;100415.38;;;17.06;90.84
57948;BME280;43754;56.992;24.292;2023-07-20T04:30:52;100403.41;;;16.84;91.24
57948;BME280;43754;56.992;24.292;2023-07-20T04:33:26;100413.28;;;16.60;92.39
57948;BME280;43754;56.992;24.292;2023-07-20T04:36:02;100411.84;;;16.39;93.39
57948;BME280;43754;56.992;24.292;2023-07-20T04:38:37;100418.16;;;16.33;94.07
57948;BME280;43754;56.992;24.292;2023-07-20T04:41:30;100428.13;;;16.15;95.33
57948;BME280;43754;56.992;24.292;2023-07-20T04:44:05;100418.38;;;16.50;93.60
57948;BME280;43754;56.992;24.292;2023-07-20T04:46:37;100423.72;;;16.75;92.55
57948;BME280;43754;56.992;24.292;2023-07-20T04:49:09;100418.44;;;17.51;88.24
57948;BME280;43754;56.992;24.292;2023-07-20T04:51:46;100420.25;;;18.38;83.37
57948;BME280;43754;56.992;24.292;2023-07-20T04:54:18;100422.19;;;18.15;84.10
57948;BME280;43754;56.992;24.292;2023-07-20T04:56:52;100429.59;;;17.96;84.47
57948;BME280;43754;56.992;24.292;2023-07-20T04:59:25;100415.44;;;17.71;85.86
57948;BME280;43754;56.992;24.292;2023-07-20T05:01:57;100421.84;;;17.46;86.42
57948;BME280;43754;56.992;24.292;2023-07-20T05:04:29;100426.06;;;17.31;87.72
57948;BME280;43754;56.992;24.292;2023-07-20T05:07:12;100419.97;;;17.06;88.99
57948;BME280;43754;56.992;24.292;2023-07-20T05:09:44;100416.94;;;17.55;87.71
57948;BME280;43754;56.992;24.292;2023-07-20T05:12:16;100415.44;;;18.41;84.02
57948;BME280;43754;56.992;24.292;2023-07-20T05:14:51;100407.25;;;19.20;79.46
57948;BME280;43754;56.992;24.292;2023-07-20T05:17:23;100405.69;;;19.69;76.11
57948;BME280;43754;56.992;24.292;2023-07-20T05:19:56;100399.63;;;20.01;75.16
57948;BME280;43754;56.992;24.292;2023-07-20T05:22:30;100389.66;;;20.45;71.74
57948;BME280;43754;56.992;24.292;2023-07-20T05:25:02;100387.41;;;20.85;71.18
57948;BME280;43754;56.992;24.292;2023-07-20T05:27:36;100393.06;;;21.27;68.56
57948;BME280;43754;56.992;24.292;2023-07-20T05:30:09;100397.19;;;21.62;67.21
57948;BME280;43754;56.992;24.292;2023-07-20T05:32:41;100390.31;;;21.59;64.15
57948;BME280;43754;56.992;24.292;2023-07-20T05:35:13;100400.28;;;21.43;65.09
57948;BME280;43754;56.992;24.292;2023-07-20T05:37:48;100387.56;;;21.00;67.29
57948;BME280;43754;56.992;24.292;2023-07-20T05:40:20;100394.97;;;20.78;67.83
57948;BME280;43754;56.992;24.292;2023-07-20T05:42:52;100400.78;;;20.43;69.84
57948;BME280;43754;56.992;24.292;2023-07-20T05:45:46;100406.22;;;20.05;70.41
57948;BME280;43754;56.992;24.292;2023-07-20T05:48:20;100406.97;;;19.84;71.33
57948;BME280;43754;56.992;24.292;2023-07-20T05:50:52;100415.53;;;20.09;71.67
57948;BME280;43754;56.992;24.292;2023-07-20T05:53:25;100407.38;;;20.09;71.47
57948;BME280;43754;56.992;24.292;2023-07-20T05:55:57;100403.06;;;20.73;68.69
57948;BME280;43754;56.992;24.292;2023-07-20T05:58:29;100410.16;;;21.49;66.74
57948;BME280;43754;56.992;24.292;2023-07-20T06:01:03;100404.88;;;21.70;64.52
57948;BME280;43754;56.992;24.292;2023-07-20T06:03:37;100408.88;;;21.57;64.69
57948;BME280;43754;56.992;24.292;2023-07-20T06:06:09;100407.31;;;21.66;64.90
57948;BME280;43754;56.992;24.292;2023-07-20T06:08:45;100409.41;;;22.33;63.83
57948;BME280;43754;56.992;24.292;2023-07-20T06:11:17;100410.50;;;22.32;62.90
57948;BME280;43754;56.992;24.292;2023-07-20T06:13:50;100405.53;;;22.24;64.00
57948;BME280;43754;56.992;24.292;2023-07-20T06:16:22;100407.59;;;22.01;65.00
57948;BME280;43754;56.992;24.292;2023-07-20T06:18:55;100395.50;;;21.92;65.89
57948;BME280;43754;56.992;24.292;2023-07-20T06:21:27;100403.47;;;21.62;66.08
57948;BME280;43754;56.992;24.292;2023-07-20T06:24:00;100407.25;;;21.61;65.83
57948;BME280;43754;56.992;24.292;2023-07-20T06:26:33;100418.13;;;21.56;66.75
57948;BME280;43754;56.992;24.292;2023-07-20T06:29:10;100418.06;;;21.51;66.33
57948;BME280;43754;56.992;24.292;2023-07-20T06:31:42;100416.53;;;21.33;65.84
57948;BME280;43754;56.992;24.292;2023-07-20T06:34:15;100414.28;;;21.52;65.01
57948;BME280;43754;56.992;24.292;2023-07-20T06:36:49;100412.03;;;22.18;63.72
57948;BME280;43754;56.992;24.292;2023-07-20T06:39:22;100417.66;;;22.43;62.74
57948;BME280;43754;56.992;24.292;2023-07-20T06:41:57;100406.59;;;22.70;61.72
57948;BME280;43754;56.992;24.292;2023-07-20T06:44:29;100418.16;;;22.35;61.30
57948;BME280;43754;56.992;24.292;2023-07-20T06:47:02;100417.63;;;22.33;61.79
57948;BME280;43754;56.992;24.292;2023-07-20T06:49:34;100416.56;;;21.97;62.00
57948;BME280;43754;56.992;24.292;2023-07-20T06:52:07;100411.84;;;21.87;63.88
57948;BME280;43754;56.992;24.292;2023-07-20T06:54:41;100415.03;;;21.79;63.43
57948;BME280;43754;56.992;24.292;2023-07-20T06:57:15;100421.31;;;21.48;64.76
57948;BME280;43754;56.992;24.292;2023-07-20T06:59:50;100419.72;;;21.25;65.95
57948;BME280;43754;56.992;24.292;2023-07-20T07:02:23;100417.94;;;21.36;65.90
57948;BME280;43754;56.992;24.292;2023-07-20T07:04:55;100417.22;;;21.45;66.19
57948;BME280;43754;56.992;24.292;2023-07-20T07:07:48;100423.34;;;21.31;66.26
57948;BME280;43754;56.992;24.292;2023-07-20T07:10:22;100410.72;;;21.51;67.34
57948;BME280;43754;56.992;24.292;2023-07-20T07:12:54;100415.03;;;21.79;64.17
57948;BME280;43754;56.992;24.292;2023-07-20T07:15:26;100420.56;;;21.52;65.35
57948;BME280;43754;56.992;24.292;2023-07-20T07:17:59;100419.09;;;21.77;64.94
57948;BME280;43754;56.992;24.292;2023-07-20T07:20:32;100417.28;;;22.24;64.13
57948;BME280;43754;56.992;24.292;2023-07-20T07:23:04;100415.81;;;22.59;63.43
57948;BME280;43754;56.992;24.292;2023-07-20T07:25:37;100417.69;;;22.48;63.42
57948;BME280;43754;56.992;24.292;2023-07-20T07:28:09;100413.81;;;22.39;61.24
57948;BME280;43754;56.992;24.292;2023-07-20T07:30:41;100404.34;;;22.57;61.93
57948;BME280;43754;56.992;24.292;2023-07-20T07:33:13;100407.88;;;22.52;60.82
57948;BME280;43754;56.992;24.292;2023-07-20T07:35:45;100408.50;;;22.69;60.45
57948;BME280;43754;56.992;24.292;2023-07-20T07:38:18;100398.25;;;23.22;59.09
57948;BME280;43754;56.992;24.292;2023-07-20T07:40:57;100390.66;;;23.44;58.50
57948;BME280;43754;56.992;24.292;2023-07-20T07:43:29;100385.16;;;23.90;57.45
57948;BME280;43754;56.992;24.292;2023-07-20T07:46:01;100389.28;;;23.57;56.76
57948;BME280;43754;56.992;24.292;2023-07-20T07:48:34;100389.53;;;23.35;57.64
57948;BME280;43754;56.992;24.292;2023-07-20T07:51:06;100383.97;;;22.84;57.91
57948;BME280;43754;56.992;24.292;2023-07-20T07:53:38;100390.25;;;22.23;57.71
57948;BME280;43754;56.992;24.292;2023-07-20T07:56:12;100389.88;;;21.72;57.69
57948;BME280;43754;56.992;24.292;2023-07-20T07:58:44;100392.75;;;21.55;57.96
57948;BME280;43754;56.992;24.292;2023-07-20T08:01:16;100385.34;;;21.88;57.64
57948;BME280;43754;56.992;24.292;2023-07-20T08:03:48;100381.09;;;22.49;54.82
57948;BME280;43754;56.992;24.292;2023-07-20T08:06:21;100374.44;;;22.30;53.12
57948;BME280;43754;56.992;24.292;2023-07-20T08:08:53;100370.25;;;22.69;53.50
57948;BME280;43754;56.992;24.292;2023-07-20T08:11:26;100367.47;;;22.64;53.63
57948;BME280;43754;56.992;24.292;2023-07-20T08:13:59;100376.50;;;22.65;52.94
57948;BME280;43754;56.992;24.292;2023-07-20T08:16:31;100376.09;;;22.31;53.08
57948;BME280;43754;56.992;24.292;2023-07-20T08:19:03;100385.50;;;22.03;54.45
57948;BME280;43754;56.992;24.292;2023-07-20T08:21:36;100398.22;;;21.92;53.96
57948;BME280;43754;56.992;24.292;2023-07-20T08:24:07;100391.19;;;21.65;54.33
57948;BME280;43754;56.992;24.292;2023-07-20T08:26:41;100392.47;;;21.25;53.70
57948;BME280;43754;56.992;24.292;2023-07-20T08:29:13;100393.72;;;21.13;53.69
57948;BME280;43754;56.992;24.292;2023-07-20T08:31:45;100395.81;;;20.84;53.64
57948;BME280;43754;56.992;24.292;2023-07-20T08:34:18;100409.13;;;20.80;54.56
57948;BME280;43754;56.992;24.292;2023-07-20T08:37:02;100415.78;;;20.46;59.41
57948;BME280;43754;56.992;24.292;2023-07-20T08:39:34;100425.84;;;20.07;63.06
57948;BME280;43754;56.992;24.292;2023-07-20T08:42:09;100417.69;;;20.07;65.05
57948;BME280;43754;56.992;24.292;2023-07-20T08:44:43;100417.91;;;20.22;66.09
57948;BME280;43754;56.992;24.292;2023-07-20T08:47:16;100410.72;;;20.54;64.22
57948;BME280;43754;56.992;24.292;2023-07-20T08:49:49;100408.47;;;21.43;63.14
57948;BME280;43754;56.992;24.292;2023-07-20T08:52:21;100406.75;;;22.01;60.06
57948;BME280;43754;56.992;24.292;2023-07-20T08:54:54;100405.53;;;22.71;56.26
57948;BME280;43754;56.992;24.292;2023-07-20T08:57:27;100410.00;;;23.17;55.69
57948;BME280;43754;56.992;24.292;2023-07-20T09:00:00;100425.72;;;22.70;55.45
57948;BME280;43754;56.992;24.292;2023-07-20T09:02:38;100440.06;;;21.71;57.46
57948;BME280;43754;56.992;24.292;2023-07-20T09:05:12;100451.38;;;21.53;60.23
57948;BME280;43754;56.992;24.292;2023-07-20T09:07:46;100447.47;;;21.17;65.50
57948;BME280;43754;56.992;24.292;2023-07-20T09:10:20;100427.81;;;20.93;69.63
57948;BME280;43754;56.992;24.292;2023-07-20T09:12:54;100423.91;;;20.84;72.87
57948;BME280;43754;56.992;24.292;2023-07-20T09:15:29;100426.75;;;20.73;74.72
57948;BME280;43754;56.992;24.292;2023-07-20T09:18:02;100435.94;;;20.45;76.33
57948;BME280;43754;56.992;24.292;2023-07-20T09:20:36;100436.78;;;20.29;77.54
57948;BME280;43754;56.992;24.292;2023-07-20T09:23:08;100436.13;;;20.21;77.12
57948;BME280;43754;56.992;24.292;2023-07-20T09:25:40;100435.81;;;20.01;79.76
57948;BME280;43754;56.992;24.292;2023-07-20T09:28:16;100437.00;;;19.89;82.19
57948;BME280;43754;56.992;24.292;2023-07-20T09:30:48;100426.88;;;20.23;83.23
57948;BME280;43754;56.992;24.292;2023-07-20T09:33:24;100423.81;;;21.01;82.09
57948;BME280;43754;56.992;24.292;2023-07-20T09:36:02;100410.78;;;21.30;79.45
57948;BME280;43754;56.992;24.292;2023-07-20T09:38:54;100408.16;;;21.40;81.37
57948;BME280;43754;56.992;24.292;2023-07-20T09:41:29;100418.47;;;21.33;81.82
57948;BME280;43754;56.992;24.292;2023-07-20T09:44:06;100440.16;;;21.01;83.57
57948;BME280;43754;56.992;24.292;2023-07-20T09:46:45;100462.78;;;20.03;76.24
57948;BME280;43754;56.992;24.292;2023-07-20T09:49:20;100465.81;;;19.56;73.95
57948;BME280;43754;56.992;24.292;2023-07-20T09:51:57;100471.88;;;19.18;75.54
57948;BME280;43754;56.992;24.292;2023-07-20T09:54:29;100480.47;;;18.99;75.43
57948;BME280;43754;56.992;24.292;2023-07-20T09:57:02;100481.09;;;18.89;75.64
57948;BME280;43754;56.992;24.292;2023-07-20T09:59:37;100484.75;;;18.83;76.62
57948;BME280;43754;56.992;24.292;2023-07-20T10:02:14;100496.00;;;18.52;75.66
57948;BME280;43754;56.992;24.292;2023-07-20T10:04:53;100504.16;;;18.52;77.27
57948;BME280;43754;56.992;24.292;2023-07-20T10:07:27;100502.97;;;18.48;76.66
57948;BME280;43754;56.992;24.292;2023-07-20T10:10:02;100503.44;;;18.33;78.73
57948;BME280;43754;56.992;24.292;2023-07-20T10:12:35;100517.59;;;18.35;81.82
57948;BME280;43754;56.992;24.292;2023-07-20T10:15:11;100513.47;;;18.32;84.05
57948;BME280;43754;56.992;24.292;2023-07-20T10:17:57;100507.56;;;18.47;81.50
57948;BME280;43754;56.992;24.292;2023-07-20T10:20:33;100512.91;;;18.65;83.76
57948;BME280;43754;56.992;24.292;2023-07-20T10:23:07;100510.03;;;18.83;83.70
57948;BME280;43754;56.992;24.292;2023-07-20T10:25:40;100505.09;;;19.09;84.00
57948;BME280;43754;56.992;24.292;2023-07-20T10:28:14;100506.66;;;19.45;84.22
57948;BME280;43754;56.992;24.292;2023-07-20T10:30:48;100506.13;;;19.76;82.58
57948;BME280;43754;56.992;24.292;2023-07-20T10:33:21;100503.59;;;20.03;81.40
57948;BME280;43754;56.992;24.292;2023-07-20T10:35:54;100500.97;;;20.25;81.61
57948;BME280;43754;56.992;24.292;2023-07-20T10:38:39;100494.84;;;20.34;78.84
57948;BME280;43754;56.992;24.292;2023-07-20T10:41:19;100490.13;;;20.46;78.38
57948;BME280;43754;56.992;24.292;2023-07-20T10:43:58;100499.09;;;20.63;70.98
57948;BME280;43754;56.992;24.292;2023-07-20T10:46:42;100494.41;;;20.81;67.36
57948;BME280;43754;56.992;24.292;2023-07-20T10:49:15;100488.34;;;20.95;68.87
57948;BME280;43754;56.992;24.292;2023-07-20T10:51:48;100494.88;;;20.94;67.95
57948;BME280;43754;56.992;24.292;2023-07-20T10:54:34;100491.44;;;21.04;64.75
57948;BME280;43754;56.992;24.292;2023-07-20T10:57:28;100502.03;;;21.22;67.89
57948;BME280;43754;56.992;24.292;2023-07-20T11:00:11;100493.66;;;21.07;74.41
57948;BME280;43754;56.992;24.292;2023-07-20T11:02:48;100494.22;;;21.31;71.51
57948;BME280;43754;56.992;24.292;2023-07-20T11:05:36;100495.31;;;21.56;70.68
57948;BME280;43754;56.992;24.292;2023-07-20T11:08:12;100496.06;;;21.79;65.96
57948;BME280;43754;56.992;24.292;2023-07-20T11:10:44;100489.91;;;22.25;63.21
57948;BME280;43754;56.992;24.292;2023-07-20T11:13:21;100493.88;;;22.08;59.94
57948;BME280;43754;56.992;24.292;2023-07-20T11:16:04;100491.69;;;21.78;61.12
57948;BME280;43754;56.992;24.292;2023-07-20T11:18:38;100487.53;;;21.43;55.68
57948;BME280;43754;56.992;24.292;2023-07-20T11:21:12;100486.94;;;21.36;58.15
57948;BME280;43754;56.992;24.292;2023-07-20T11:23:44;100486.78;;;21.80;59.13
57948;BME280;43754;56.992;24.292;2023-07-20T11:26:19;100474.41;;;21.94;58.80
57948;BME280;43754;56.992;24.292;2023-07-20T11:28:51;100475.00;;;22.43;56.59
57948;BME280;43754;56.992;24.292;2023-07-20T11:31:23;100467.59;;;22.85;57.85
57948;BME280;43754;56.992;24.292;2023-07-20T11:33:57;100467.09;;;22.93;54.40
57948;BME280;43754;56.992;24.292;2023-07-20T11:36:44;100461.09;;;23.02;53.54
57948;BME280;43754;56.992;24.292;2023-07-20T11:39:22;100455.88;;;22.90;52.18
57948;BME280;43754;56.992;24.292;2023-07-20T11:41:55;100464.69;;;23.12;53.64
57948;BME280;43754;56.992;24.292;2023-07-20T11:44:29;100469.13;;;23.28;51.91
57948;BME280;43754;56.992;24.292;2023-07-20T11:47:03;100464.97;;;23.26;49.75
57948;BME280;43754;56.992;24.292;2023-07-20T11:49:40;100459.03;;;23.44;50.98
57948;BME280;43754;56.992;24.292;2023-07-20T11:52:15;100458.25;;;23.64;49.81
57948;BME280;43754;56.992;24.292;2023-07-20T11:54:47;100467.84;;;23.87;50.28
57948;BME280;43754;56.992;24.292;2023-07-20T11:57:20;100466.44;;;23.49;49.90
57948;BME280;43754;56.992;24.292;2023-07-20T11:59:53;100457.88;;;23.20;51.92
57948;BME280;43754;56.992;24.292;2023-07-20T12:02:30;100458.06;;;22.93;51.91
57948;BME280;43754;56.992;24.292;2023-07-20T12:05:04;100464.22;;;22.68;51.02
57948;BME280;43754;56.992;24.292;2023-07-20T12:07:36;100458.06;;;22.41;51.61
57948;BME280;43754;56.992;24.292;2023-07-20T12:10:10;100463.50;;;22.36;52.50
57948;BME280;43754;56.992;24.292;2023-07-20T12:12:44;100464.25;;;22.26;53.40
57948;BME280;43754;56.992;24.292;2023-07-20T12:15:17;100469.72;;;22.26;53.56
57948;BME280;43754;56.992;24.292;2023-07-20T12:17:53;100469.88;;;22.10;53.28
57948;BME280;43754;56.992;24.292;2023-07-20T12:20:29;100471.66;;;21.94;53.89
57948;BME280;43754;56.992;24.292;2023-07-20T12:23:03;100478.13;;;21.88;55.58
57948;BME280;43754;56.992;24.292;2023-07-20T12:25:37;100480.13;;;21.66;57.98
57948;BME280;43754;56.992;24.292;2023-07-20T12:28:12;100491.66;;;21.46;60.92
57948;BME280;43754;56.992;24.292;2023-07-20T12:30:46;100498.69;;;21.15;63.69
57948;BME280;43754;56.992;24.292;2023-07-20T12:33:18;100500.25;;;20.89;68.29
57948;BME280;43754;56.992;24.292;2023-07-20T12:35:52;100497.38;;;20.57;71.86
57948;BME280;43754;56.992;24.292;2023-07-20T12:38:28;100484.94;;;20.28;76.87
57948;BME280;43754;56.992;24.292;2023-07-20T12:41:00;100481.16;;;20.12;79.46
57948;BME280;43754;56.992;24.292;2023-07-20T12:43:33;100479.56;;;20.16;81.88
57948;BME280;43754;56.992;24.292;2023-07-20T12:46:05;100479.78;;;20.65;82.73
57948;BME280;43754;56.992;24.292;2023-07-20T12:48:37;100471.16;;;21.17;80.52
57948;BME280;43754;56.992;24.292;2023-07-20T12:51:11;100468.75;;;21.47;76.14
57948;BME280;43754;56.992;24.292;2023-07-20T12:53:44;100465.66;;;21.65;76.98
57948;BME280;43754;56.992;24.292;2023-07-20T12:56:16;100460.66;;;21.89;77.16
57948;BME280;43754;56.992;24.292;2023-07-20T12:58:51;100458.13;;;22.09;74.55
57948;BME280;43754;56.992;24.292;2023-07-20T13:01:23;100449.72;;;22.16;76.63
57948;BME280;43754;56.992;24.292;2023-07-20T13:03:56;100448.59;;;22.12;71.66
57948;BME280;43754;56.992;24.292;2023-07-20T13:06:32;100439.63;;;21.84;73.79
57948;BME280;43754;56.992;24.292;2023-07-20T13:09:07;100442.66;;;21.56;72.20
57948;BME280;43754;56.992;24.292;2023-07-20T13:11:40;100442.25;;;21.42;75.61
57948;BME280;43754;56.992;24.292;2023-07-20T13:14:12;100447.53;;;21.49;74.82
57948;BME280;43754;56.992;24.292;2023-07-20T13:16:44;100437.47;;;21.86;72.54